Airfield :
LOGIN :

Register | Disclaimer

   EN    FR    IT 

 










Legend :    VFR   Marginal VFR   IFR   Intensive IFR   Very Intensive IFR
Visi :
Ceiling :
>= 8 km
>= 3000ft
5 to 8 km
1000 to 3000 ft
1500m to 5 km
500 to 1000 ft
800 to 1500m
200 to 500 ft
< 800m
< 200 ft
Symbols :   Thunderstorms  Fog  Heavy snow  Heavy precipitations  Wind > 20 kt
SIGMETs :     Misc.  Thunderstorms  Icing  Turbulence  Mountain Waves  Volcanic Ashes







- Airport Elevation : 147 ft
- IATA code : DUS


EDDL - Düsseldorf Int.

CURRENT METAR :
  • 240920Z 24007KT 210V280 9999 SCT039 BKN059 19/12 Q1024 NOSIG

EXPIRED METARs :
  • 240850Z 23005KT 180V280 9999 BKN038 BKN058 18/12 Q1024 NOSIG
  • 240820Z 24006KT 200V270 9999 SCT045 BKN059 17/11 Q1024 NOSIG
  • 240750Z 26005KT 220V300 9999 SCT043 BKN064 17/11 Q1024 NOSIG
  • 240720Z 26003KT 200V290 9999 BKN019 BKN022 16/09 Q1024 NOSIG

TAF TAF EDDL
Valid from the 24 at 06:00 until the 25 at 12:00 UTC


240500Z 2406/2512 VRB03KT 9999 SCT030
BECMG 2409/2412 31009KT
BECMG 2421/2424 35004KT
TEMPO 2504/2508 BKN012
No reported NOTAMs for that airfield.



MET'MAP, your aeronautical weather chart ! - Copyright ORBIFLY December 2007 - Disclaimer

ORBIFLY MET'MAP TEAM :

Programming & Development : Alexandra Zaïnal
Concept & Development : Baudouin d'Aumeries
Co-Development & Prog : Marc-Olivier Méhu
Technical & hardware support : Manuel Goepfert

Contact : metmap@orbifly.com




SOURCES & CREDITS :

   NOAA